Time;durP1;ratioP1;P1;durP2;ratioP2;P2;SDS_P1;SDS_P2;PMS_P1;PMS_P2;Temp;Humidity;BMP_temperature;BMP_pressure;BME280_temperature;BME280_humidity;BME280_pressure;Samples;Min_cycle;Max_cycle;Signal;HPM_P1;HPM_P2
2022/08/04 00:00:39;;;;;;;5.78;2.05;;;;;;;23.85;55.54;98296.38;4137670;28;20236;-53
2022/08/04 00:03:07;;;;;;;2.08;1.88;;;;;;;23.89;55.29;98301.34;4140123;28;20228;-53
2022/08/04 00:05:33;;;;;;;2.30;1.83;;;;;;;23.89;55.78;98301.34;4112171;28;20683;-53
2022/08/04 00:07:48;;;;;;;2.28;1.83;;;;;;;23.84;55.87;98300.34;4133434;28;20213;-53
2022/08/04 00:10:01;;;;;;;1.73;1.63;;;;;;;23.88;55.38;98299.66;4124484;28;20663;-54
2022/08/04 00:12:05;;;;;;;2.58;2.38;;;;;;;23.91;55.52;98293.41;4119394;28;20221;-54
2022/08/04 00:14:12;;;;;;;2.33;2.13;;;;;;;23.93;55.40;98292.72;4139762;28;20225;-54
2022/08/04 00:16:14;;;;;;;3.05;1.63;;;;;;;23.93;55.34;98289.91;4153851;28;20211;-53
2022/08/04 00:18:17;;;;;;;2.20;2.00;;;;;;;23.96;55.39;98287.63;4130493;28;20282;-54
2022/08/04 00:20:20;;;;;;;2.25;2.05;;;;;;;23.98;55.52;98290.88;4133871;28;20223;-54
2022/08/04 00:22:26;;;;;;;2.60;2.30;;;;;;;23.87;55.79;98287.69;4136965;28;20267;-53
2022/08/04 00:24:32;;;;;;;2.70;2.22;;;;;;;23.85;55.79;98289.94;4132651;28;20205;-54
2022/08/04 00:26:35;;;;;;;1.90;1.80;;;;;;;23.83;55.95;98287.53;4135905;28;20501;-54
2022/08/04 00:28:37;;;;;;;2.40;2.20;;;;;;;23.82;55.91;98296.25;4136267;28;20243;-54
2022/08/04 00:30:41;;;;;;;2.60;1.90;;;;;;;23.81;56.06;98298.19;4139334;28;20651;-54
2022/08/04 00:32:43;;;;;;;2.95;2.42;;;;;;;23.77;56.20;98295.63;4122899;28;20365;-54
2022/08/04 00:34:45;;;;;;;1.77;1.67;;;;;;;23.77;56.45;98292.84;4153594;28;20223;-53
2022/08/04 00:36:47;;;;;;;2.38;2.17;;;;;;;23.77;56.51;98294.47;4136468;28;20216;-53
2022/08/04 00:38:50;;;;;;;4.30;2.30;;;;;;;23.72;56.52;98295.84;4117907;28;20213;-54
2022/08/04 00:41:01;;;;;;;2.67;2.33;;;;;;;23.65;57.16;98306.72;4138835;28;20691;-54
2022/08/04 00:43:20;;;;;;;2.63;2.40;;;;;;;23.54;57.40;98299.91;4139682;28;20209;-54
2022/08/04 00:45:56;;;;;;;3.67;2.85;;;;;;;23.50;56.69;98298.97;4140405;28;20228;-54
2022/08/04 00:48:21;;;;;;;2.22;2.10;;;;;;;23.49;56.95;98294.50;4134004;28;20225;-54
2022/08/04 00:51:04;;;;;;;3.55;2.42;;;;;;;23.44;57.45;98300.31;4136365;28;20208;-53
2022/08/04 00:53:12;;;;;;;2.55;2.35;;;;;;;23.35;57.15;98291.97;4123038;28;20258;-54
2022/08/04 00:55:48;;;;;;;2.95;2.47;;;;;;;23.34;57.31;98295.09;4140082;28;20220;-53
2022/08/04 00:58:20;;;;;;;2.30;2.10;;;;;;;23.36;57.42;98288.03;4150593;28;20895;-54
2022/08/04 01:00:22;;;;;;;2.47;2.28;;;;;;;23.39;57.09;98295.75;4134453;28;20660;-53
2022/08/04 01:02:43;;;;;;;2.78;2.13;;;;;;;23.45;57.26;98293.56;4133165;28;20628;-54
2022/08/04 01:05:04;;;;;;;2.50;2.40;;;;;;;23.39;56.96;98292.94;4134722;28;20629;-55
2022/08/04 01:07:06;;;;;;;2.00;1.90;;;;;;;23.34;57.25;98289.50;4154505;28;20204;-53
2022/08/04 01:09:35;;;;;;;2.00;1.80;;;;;;;23.26;57.61;98293.19;4134064;28;20302;-53
2022/08/04 01:11:57;;;;;;;6.05;2.58;;;;;;;23.20;57.42;98302.91;4137021;28;20224;-55
2022/08/04 01:14:35;;;;;;;2.60;2.40;;;;;;;23.19;57.63;98301.28;4141433;28;20221;-53
2022/08/04 01:16:47;;;;;;;1.83;1.73;;;;;;;23.14;57.41;98293.88;4121553;28;20213;-55
2022/08/04 01:18:59;;;;;;;2.00;1.90;;;;;;;23.16;57.22;98299.19;4136006;28;20217;-54
2022/08/04 01:21:28;;;;;;;2.17;1.98;;;;;;;23.17;57.63;98301.59;4136623;28;20820;-54
2022/08/04 01:23:58;;;;;;;7.00;2.47;;;;;;;23.18;57.39;98291.28;4139872;28;20220;-54
2022/08/04 01:26:15;;;;;;;2.30;2.20;;;;;;;23.10;57.61;98289.31;4135223;28;20736;-54
2022/08/04 01:29:01;;;;;;;2.63;2.42;;;;;;;22.99;57.68;98288.03;4137085;28;20689;-56
2022/08/04 01:31:19;;;;;;;2.97;1.83;;;;;;;22.90;57.79;98278.91;4135180;28;20216;-54
2022/08/04 01:33:22;;;;;;;3.15;2.50;;;;;;;22.83;58.32;98282.19;4154962;28;20242;-53
2022/08/04 01:35:28;;;;;;;4.50;2.05;;;;;;;22.78;58.45;98284.38;4138031;28;20224;-54
2022/08/04 01:37:57;;;;;;;7.18;2.00;;;;;;;22.75;58.57;98282.22;4140334;28;20205;-53
2022/08/04 01:40:04;;;;;;;2.08;1.98;;;;;;;22.76;58.50;98281.09;4139265;28;20274;-54
2022/08/04 01:42:07;;;;;;;2.53;2.33;;;;;;;22.75;58.59;98282.22;4138094;28;20239;-54
2022/08/04 01:44:11;;;;;;;3.33;3.13;;;;;;;22.75;58.57;98287.81;4136810;28;20212;-54
2022/08/04 01:46:15;;;;;;;2.85;2.47;;;;;;;22.72;58.72;98282.91;4148517;28;20266;-53
2022/08/04 01:48:23;;;;;;;2.20;2.00;;;;;;;22.71;58.57;98281.28;4135892;28;20216;-54
2022/08/04 01:50:27;;;;;;;1.83;1.73;;;;;;;22.71;58.72;98281.28;4133073;28;20196;-54
2022/08/04 01:52:30;;;;;;;2.47;2.28;;;;;;;22.72;58.68;98282.91;4133911;28;20229;-54
2022/08/04 01:54:38;;;;;;;1.67;1.58;;;;;;;22.73;58.67;98273.38;4150119;28;20220;-54
2022/08/04 01:56:40;;;;;;;2.17;2.08;;;;;;;22.72;58.88;98278.13;4135821;28;20279;-54
2022/08/04 01:58:42;;;;;;;2.72;2.00;;;;;;;22.66;59.13;98278.66;4137195;28;20205;-54
2022/08/04 02:00:56;;;;;;;2.55;2.35;;;;;;;22.57;59.11;98281.47;4132113;28;20231;-54
2022/08/04 02:02:58;;;;;;;2.97;2.65;;;;;;;22.50;59.45;98277.59;4136730;28;20304;-55
2022/08/04 02:05:00;;;;;;;2.10;2.00;;;;;;;22.44;60.01;98281.69;4136604;28;20198;-53
2022/08/04 02:07:26;;;;;;;2.10;1.90;;;;;;;22.39;59.94;98273.47;4134730;28;20204;-54
2022/08/04 02:09:36;;;;;;;2.70;2.45;;;;;;;22.35;59.82;98278.06;4137985;28;20213;-55
2022/08/04 02:12:32;;;;;;;11.13;2.08;;;;;;;22.33;59.79;98274.81;4150640;28;20334;-53
2022/08/04 02:14:44;;;;;;;2.70;2.40;;;;;;;22.28;59.90;98274.97;4151134;28;20281;-54
2022/08/04 02:16:49;;;;;;;2.78;2.30;;;;;;;22.26;60.04;98268.91;4138154;28;20260;-53
2022/08/04 02:19:11;;;;;;;3.78;2.70;;;;;;;22.30;60.02;98269.91;4136271;28;20205;-54
2022/08/04 02:21:18;;;;;;;2.17;1.98;;;;;;;22.33;59.89;98269.22;4138662;28;20596;-54
2022/08/04 02:23:26;;;;;;;3.10;2.35;;;;;;;22.31;60.05;98271.53;4156315;28;20196;-54
2022/08/04 02:25:31;;;;;;;4.00;2.10;;;;;;;22.33;60.11;98258.06;4139699;28;20259;-54
2022/08/04 02:27:53;;;;;;;2.25;2.15;;;;;;;22.28;60.07;98263.81;4137564;28;20274;-54
2022/08/04 02:30:04;;;;;;;1.92;1.83;;;;;;;22.22;60.26;98265.97;4141555;28;20264;-53
2022/08/04 02:32:14;;;;;;;2.80;2.60;;;;;;;22.20;60.52;98261.88;4142413;28;20259;-53
2022/08/04 02:34:22;;;;;;;1.83;1.73;;;;;;;;;;4140606;28;20204;-53
2022/08/04 02:36:30;;;;;;;2.65;2.35;;;;;;;22.10;60.89;98257.47;4142511;28;20731;-54
2022/08/04 02:38:55;;;;;;;2.38;2.28;;;;;;;22.03;61.14;98253.56;4141729;28;21915;-53
2022/08/04 02:40:59;;;;;;;2.30;2.17;;;;;;;21.99;61.11;98263.72;4135109;28;20299;-54
2022/08/04 02:43:03;;;;;;;2.17;1.98;;;;;;;21.92;61.18;98263.41;4138634;28;20324;-54
2022/08/04 02:45:06;;;;;;;2.63;2.42;;;;;;;21.98;60.81;98262.09;4138766;28;20255;-54
2022/08/04 02:47:09;;;;;;;2.33;2.05;;;;;;;21.96;60.79;98258.78;4137734;28;20279;-55
2022/08/04 02:49:12;;;;;;;3.13;2.72;;;;;;;21.96;60.94;98261.56;4136375;28;20626;-53
2022/08/04 02:51:23;;;;;;;2.47;2.28;;;;;;;21.96;60.58;98258.78;4138183;28;20241;-53
2022/08/04 02:53:26;;;;;;;2.45;2.25;;;;;;;21.96;60.95;98254.03;4140932;28;20212;-53
2022/08/04 02:55:29;;;;;;;2.35;2.15;;;;;;;21.96;60.94;98256.00;4142602;28;20623;-54
2022/08/04 02:57:31;;;;;;;2.28;2.17;;;;;;;21.93;61.08;98248.31;4140936;28;20674;-54
2022/08/04 03:00:02;;;;;;;4.35;2.25;;;;;;;21.87;60.85;98255.19;4123740;28;20680;-54
2022/08/04 03:02:03;;;;;;;2.92;2.72;;;;;;;21.83;61.13;98255.03;4135302;28;20232;-54
2022/08/04 03:04:30;;;;;;;2.38;2.17;;;;;;;21.81;61.19;98250.94;4136216;28;20271;-54
2022/08/04 03:07:09;;;;;;;3.03;2.78;;;;;;;21.77;60.96;98249.97;4138192;28;20789;-54
2022/08/04 03:09:28;;;;;;;2.42;2.22;;;;;;;21.74;61.27;98250.63;4138673;28;20214;-54
2022/08/04 03:12:05;;;;;;;7.10;2.35;;;;;;;21.73;61.56;98260.13;4153790;28;20235;-54
2022/08/04 03:14:07;;;;;;;2.50;2.30;;;;;;;21.67;61.71;98255.88;4091295;28;20215;-54
2022/08/04 03:16:16;;;;;;;2.47;2.28;;;;;;;21.64;61.75;98251.72;4153305;28;20228;-54
2022/08/04 03:18:53;;;;;;;2.70;2.35;;;;;;;21.56;62.26;98248.94;4137640;28;20204;-54
2022/08/04 03:21:01;;;;;;;3.80;3.25;;;;;;;21.56;61.97;98248.94;4105676;28;20237;-54
2022/08/04 03:23:18;;;;;;;3.42;2.45;;;;;;;21.56;62.04;98248.94;4156802;28;20203;-54
2022/08/04 03:25:31;;;;;;;2.33;2.20;;;;;;;21.57;62.05;98253.41;4158384;28;20215;-53
2022/08/04 03:27:59;;;;;;;2.90;2.60;;;;;;;21.56;61.74;98254.50;4140355;28;20208;-54
2022/08/04 03:30:16;;;;;;;2.58;2.38;;;;;;;21.57;62.03;98245.03;4101444;28;20255;-53
2022/08/04 03:32:36;;;;;;;2.53;2.33;;;;;;;21.54;61.90;98251.25;4160911;28;20346;-53
2022/08/04 03:34:57;;;;;;;2.42;2.20;;;;;;;21.51;62.08;98251.91;4142168;28;20221;-53
2022/08/04 03:37:16;;;;;;;2.60;2.40;;;;;;;21.47;61.92;98251.75;4161789;28;20262;-54
2022/08/04 03:39:43;;;;;;;2.58;2.03;;;;;;;21.47;61.99;98257.31;4158990;28;20658;-55
2022/08/04 03:42:02;;;;;;;2.08;1.88;;;;;;;21.47;62.07;98256.47;4134955;28;20316;-53
2022/08/04 03:44:37;;;;;;;2.05;1.95;;;;;;;21.46;62.46;98261.25;4150614;28;20249;-54
2022/08/04 03:47:06;;;;;;;2.97;2.63;;;;;;;21.43;62.23;98258.31;4140171;28;20204;-53
2022/08/04 03:49:32;;;;;;;3.03;2.83;;;;;;;21.40;62.20;98256.97;4142530;28;20589;-54
2022/08/04 03:54:36;;;;;;;2.40;2.25;;;;;;;21.34;62.68;98251.88;4156423;28;20918;-53
2022/08/04 03:56:55;;;;;;;2.70;2.50;;;;;;;21.27;62.68;98251.56;4139601;28;20209;-54
2022/08/04 03:59:23;;;;;;;2.53;2.33;;;;;;;21.22;62.84;98254.47;4156180;28;20212;-53
2022/08/04 04:02:09;;;;;;;3.40;2.28;;;;;;;21.16;63.08;98253.00;4127166;28;20221;-53
2022/08/04 04:04:30;;;;;;;5.22;2.08;;;;;;;21.14;62.99;98247.78;4083125;28;20215;-53
2022/08/04 04:07:15;;;;;;;2.25;2.15;;;;;;;21.12;63.20;98260.38;4135746;28;20526;-54
2022/08/04 04:09:40;;;;;;;2.28;2.10;;;;;;;21.12;63.27;98263.16;4134556;28;20641;-54
2022/08/04 04:12:38;;;;;;;2.22;2.13;;;;;;;21.12;63.09;98271.50;4138898;28;20307;-53
2022/08/04 04:14:51;;;;;;;2.75;2.55;;;;;;;21.11;63.14;98264.31;4156963;28;20200;-53
2022/08/04 04:17:03;;;;;;;2.90;2.70;;;;;;;21.10;63.51;98273.81;4139241;28;20205;-53
2022/08/04 04:19:36;;;;;;;2.63;2.38;;;;;;;21.08;63.68;98264.94;4160251;28;20231;-53
2022/08/04 04:22:11;;;;;;;2.85;2.65;;;;;;;21.10;63.52;98273.81;4140237;28;20747;-54
2022/08/04 04:24:19;;;;;;;2.85;2.65;;;;;;;21.09;63.36;98266.56;4156315;28;20200;-54
2022/08/04 04:26:58;;;;;;;2.83;2.60;;;;;;;21.11;63.74;98275.44;4137989;28;20287;-54
2022/08/04 04:29:18;;;;;;;2.65;2.45;;;;;;;21.13;63.08;98273.16;4141637;28;20196;-54
2022/08/04 04:31:39;;;;;;;2.70;2.50;;;;;;;21.12;63.31;98268.72;4159477;28;20600;-53
2022/08/04 04:33:58;;;;;;;3.88;2.45;;;;;;;21.09;63.51;98266.56;4158933;28;20196;-54
2022/08/04 04:36:23;;;;;;;2.47;2.38;;;;;;;21.07;63.38;98274.44;4137697;28;20332;-54
2022/08/04 04:38:58;;;;;;;3.75;2.78;;;;;;;21.04;63.36;98269.53;4158100;28;20227;-54
2022/08/04 04:41:14;;;;;;;3.67;2.63;;;;;;;21.04;63.66;98272.31;4140012;28;20233;-55
2022/08/04 04:43:19;;;;;;;2.72;2.53;;;;;;;21.05;63.56;98276.72;4140890;28;20292;-54
2022/08/04 04:45:33;;;;;;;4.22;2.75;;;;;;;21.04;63.36;98281.47;4139787;28;20248;-53
2022/08/04 04:47:50;;;;;;;2.42;2.22;;;;;;;21.04;63.63;98283.44;4125451;28;20271;-53
2022/08/04 04:50:14;;;;;;;3.30;2.75;;;;;;;21.03;63.72;98279.00;4144028;28;20677;-53
2022/08/04 04:52:33;;;;;;;11.00;3.08;;;;;;;21.01;64.33;98278.50;4122237;28;20225;-53
2022/08/04 04:54:59;;;;;;;3.45;2.50;;;;;;;20.97;64.44;98283.09;4139371;28;20670;-54
2022/08/04 04:57:19;;;;;;;2.63;2.42;;;;;;;20.98;64.54;98287.50;4138415;28;20691;-54
2022/08/04 05:00:06;;;;;;;3.58;2.97;;;;;;;21.00;64.56;98290.78;4145106;28;20209;-53
2022/08/04 05:02:42;;;;;;;3.10;2.78;;;;;;;20.99;64.52;98294.72;4139267;28;20236;-53
2022/08/04 05:05:18;;;;;;;2.83;2.55;;;;;;;21.04;64.73;98291.78;4150511;28;20273;-54
2022/08/04 05:07:49;;;;;;;3.67;2.67;;;;;;;21.05;65.09;98296.22;4140891;28;20263;-54
2022/08/04 05:10:02;;;;;;;2.35;2.25;;;;;;;21.06;64.91;98295.91;4117894;28;20210;-54
2022/08/04 05:12:22;;;;;;;2.42;2.15;;;;;;;21.09;64.43;98294.41;4160625;28;20223;-53
2022/08/04 05:14:47;;;;;;;3.08;2.85;;;;;;;21.16;64.56;98297.53;4143886;28;20258;-53
2022/08/04 05:17:11;;;;;;;2.63;2.42;;;;;;;21.07;64.98;98293.91;4134098;28;20213;-54
2022/08/04 05:19:24;;;;;;;2.67;2.47;;;;;;;21.14;64.70;98297.88;4155015;28;20204;-53
2022/08/04 05:21:32;;;;;;;2.95;2.75;;;;;;;21.21;64.25;98297.38;4133423;28;20271;-54
2022/08/04 05:23:37;;;;;;;2.40;2.25;;;;;;;21.29;64.22;98296.56;4141030;28;20204;-54
2022/08/04 05:26:03;;;;;;;3.55;3.25;;;;;;;21.25;64.52;98301.19;4139921;28;20202;-54
2022/08/04 05:28:26;;;;;;;3.53;3.28;;;;;;;21.32;64.20;98304.31;4141147;28;20279;-54
2022/08/04 05:30:30;;;;;;;2.67;2.15;;;;;;;21.40;63.89;98309.06;4134914;28;20598;-53
2022/08/04 05:32:37;;;;;;;3.20;2.90;;;;;;;21.48;63.47;98308.25;4119524;28;20234;-54
2022/08/04 05:34:50;;;;;;;2.92;2.72;;;;;;;21.62;63.51;98304.19;4140105;28;20232;-54
2022/08/04 05:36:57;;;;;;;4.13;2.78;;;;;;;21.69;63.39;98304.53;4143655;28;20201;-54
2022/08/04 05:39:00;;;;;;;2.28;2.08;;;;;;;21.77;62.75;98311.28;4125859;28;20263;-55
2022/08/04 05:41:02;;;;;;;2.85;2.45;;;;;;;21.80;62.95;98305.03;4159027;28;20207;-54
2022/08/04 05:43:05;;;;;;;3.25;2.95;;;;;;;21.94;63.11;98305.69;4143765;28;20701;-55
2022/08/04 05:45:08;;;;;;;4.30;2.47;;;;;;;22.09;62.78;98307.97;4139868;28;20243;-55
2022/08/04 05:47:11;;;;;;;5.30;2.38;;;;;;;22.22;62.58;98313.38;4137956;28;20216;-53
2022/08/04 05:49:14;;;;;;;3.67;2.60;;;;;;;22.38;62.29;98306.09;4121694;28;20603;-54
2022/08/04 05:51:23;;;;;;;2.33;2.13;;;;;;;22.56;62.16;98299.38;4139768;28;20232;-55
2022/08/04 05:53:25;;;;;;;3.47;2.47;;;;;;;22.76;61.70;98301.44;4118758;28;20658;-55
2022/08/04 05:55:28;;;;;;;2.60;2.30;;;;;;;23.04;60.63;98307.41;4123927;28;20233;-54
2022/08/04 05:57:50;;;;;;;2.72;2.53;;;;;;;23.08;60.45;98305.56;4144028;28;20212;-54
2022/08/04 05:59:58;;;;;;;3.17;2.63;;;;;;;23.03;59.71;98311.34;4155441;28;20242;-54
2022/08/04 06:02:02;;;;;;;4.78;2.53;;;;;;;23.05;60.50;98303.47;4141606;28;20881;-55
2022/08/04 06:04:04;;;;;;;3.83;2.50;;;;;;;23.18;61.10;98308.03;4141651;28;20215;-54
2022/08/04 06:06:13;;;;;;;2.88;2.50;;;;;;;23.32;60.28;98319.78;4124240;28;20201;-55
2022/08/04 06:08:15;;;;;;;3.20;2.58;;;;;;;23.43;59.74;98318.22;4139705;28;20197;-55
2022/08/04 06:10:17;;;;;;;3.72;3.42;;;;;;;23.55;59.73;98318.28;4132539;28;20219;-54
2022/08/04 06:12:27;;;;;;;2.38;2.22;;;;;;;23.65;59.07;98315.13;4139940;28;20695;-54
2022/08/04 06:14:40;;;;;;;19.63;2.67;;;;;;;23.59;59.61;98313.69;4125697;28;20236;-54
2022/08/04 06:16:43;;;;;;;3.17;2.90;;;;;;;23.78;59.39;98318.47;4141598;28;20623;-54
2022/08/04 06:18:53;;;;;;;2.72;2.42;;;;;;;23.96;58.90;98316.38;4126173;28;20208;-54
2022/08/04 06:21:21;;;;;;;2.70;2.50;;;;;;;24.09;58.68;98313.31;4144446;28;20749;-54
2022/08/04 06:23:27;;;;;;;2.10;2.00;;;;;;;24.16;58.17;98316.38;4156087;28;20200;-54
2022/08/04 06:25:31;;;;;;;3.03;2.20;;;;;;;24.30;57.72;98316.91;4143001;28;20204;-53
2022/08/04 06:27:33;;;;;;;3.67;2.03;;;;;;;24.43;57.56;98321.38;4137863;28;20295;-53
2022/08/04 06:29:39;;;;;;;3.17;2.10;;;;;;;24.63;57.25;98328.09;4134529;28;20280;-54
2022/08/04 06:31:42;;;;;;;3.53;2.10;;;;;;;24.78;56.90;98319.03;4122191;28;20225;-53
2022/08/04 06:34:04;;;;;;;2.58;1.95;;;;;;;24.85;56.74;98320.09;4142889;28;20209;-54
2022/08/04 06:36:07;;;;;;;4.32;1.85;;;;;;;25.03;56.24;98321.53;4140583;28;20224;-53
2022/08/04 06:38:10;;;;;;;2.67;2.47;;;;;;;25.14;55.17;98322.69;4143023;28;20201;-55
2022/08/04 06:40:15;;;;;;;8.05;2.80;;;;;;;25.16;55.09;98319.56;4125699;28;20205;-54
2022/08/04 06:42:33;;;;;;;3.03;2.47;;;;;;;25.38;54.70;98314.34;4161251;28;20234;-54
2022/08/04 06:44:35;;;;;;;2.97;2.78;;;;;;;25.46;54.89;98321.78;4124638;28;20214;-54
2022/08/04 06:46:40;;;;;;;3.42;2.58;;;;;;;25.66;54.65;98323.63;4141571;28;20209;-54
2022/08/04 06:48:42;;;;;;;5.35;2.45;;;;;;;25.81;53.90;98320.13;4161386;28;20207;-53
2022/08/04 06:50:47;;;;;;;4.80;2.90;;;;;;;26.03;54.12;98316.81;4142419;28;20205;-53
2022/08/04 06:53:10;;;;;;;3.35;2.40;;;;;;;26.12;53.52;98325.09;4142753;28;20254;-54
2022/08/04 06:55:12;;;;;;;2.65;1.80;;;;;;;26.28;53.12;98318.38;4142189;28;20201;-54
2022/08/04 06:57:16;;;;;;;7.43;2.33;;;;;;;26.53;52.36;98319.91;4136991;28;20347;-53
2022/08/04 06:59:19;;;;;;;5.60;2.92;;;;;;;26.48;51.35;98322.13;4144295;28;20213;-54
2022/08/04 07:01:21;;;;;;;3.88;1.95;;;;;;;26.61;52.31;98321.75;4126124;28;20212;-53
2022/08/04 07:03:23;;;;;;;3.08;2.15;;;;;;;26.81;51.36;98323.53;4142526;28;20232;-53
2022/08/04 07:05:25;;;;;;;4.95;2.08;;;;;;;26.75;50.88;98322.16;4139650;28;20239;-54
2022/08/04 07:07:30;;;;;;;4.43;3.05;;;;;;;26.95;50.09;98323.88;4144971;28;20705;-54
2022/08/04 07:09:38;;;;;;;3.08;2.03;;;;;;;27.02;51.21;98318.47;4130257;28;20209;-53
2022/08/04 07:11:40;;;;;;;6.22;1.80;;;;;;;27.15;51.36;98320.03;4145775;28;20260;-53
2022/08/04 07:13:49;;;;;;;3.67;2.08;;;;;;;27.35;50.74;98324.56;4162890;28;20204;-53
2022/08/04 07:15:51;;;;;;;5.07;1.95;;;;;;;27.58;49.72;98322.69;4145619;28;20714;-53
2022/08/04 07:17:58;;;;;;;5.78;1.65;;;;;;;27.80;49.63;98324.06;4163601;28;20650;-53
2022/08/04 07:20:02;;;;;;;3.55;1.98;;;;;;;27.59;48.45;98315.09;4140021;28;20663;-54
2022/08/04 07:22:06;;;;;;;4.80;2.05;;;;;;;27.68;49.37;98327.78;4166541;28;20633;-54
2022/08/04 07:24:30;;;;;;;2.08;1.90;;;;;;;28.17;49.09;98328.91;4133486;28;20241;-54
2022/08/04 07:26:33;;;;;;;11.30;2.30;;;;;;;28.35;48.19;98318.84;4145813;28;20645;-54
2022/08/04 07:28:35;;;;;;;4.88;1.90;;;;;;;28.69;48.06;98317.97;4146723;28;20213;-54
2022/08/04 07:30:38;;;;;;;5.20;1.85;;;;;;;28.79;45.95;98317.34;4125518;28;20210;-54
2022/08/04 07:32:42;;;;;;;5.80;1.98;;;;;;;28.80;47.02;98316.19;4159803;28;20702;-54
2022/08/04 07:34:44;;;;;;;2.25;1.98;;;;;;;29.09;45.94;98314.69;4134329;28;20737;-54
2022/08/04 07:36:52;;;;;;;3.20;1.95;;;;;;;28.87;45.78;98315.47;4152610;28;20523;-55
2022/08/04 07:38:56;;;;;;;6.28;1.75;;;;;;;28.99;45.63;98316.13;4158860;28;20211;-54
2022/08/04 07:41:00;;;;;;;2.80;1.65;;;;;;;29.36;45.64;98307.91;4140828;28;20201;-54
2022/08/04 07:43:02;;;;;;;3.15;2.05;;;;;;;29.75;45.42;98309.38;4121699;28;20218;-53
2022/08/04 07:45:04;;;;;;;2.67;1.63;;;;;;;29.72;43.93;98312.97;4134270;28;20212;-55
2022/08/04 07:47:11;;;;;;;2.78;2.00;;;;;;;29.90;43.96;98316.84;4144163;28;20205;-55
2022/08/04 07:49:14;;;;;;;6.20;1.40;;;;;;;30.12;43.92;98313.97;4140043;28;20197;-55
2022/08/04 07:51:36;;;;;;;2.63;1.35;;;;;;;29.77;42.63;98304.19;4137975;28;20271;-54
2022/08/04 07:53:39;;;;;;;2.15;1.92;;;;;;;29.56;42.30;98304.66;4142718;28;20204;-55
2022/08/04 07:55:56;;;;;;;2.60;1.88;;;;;;;29.73;42.77;98318.22;4137657;28;20306;-54
2022/08/04 07:57:59;;;;;;;3.72;1.98;;;;;;;30.06;43.42;98315.47;4123806;28;20262;-54
2022/08/04 08:00:03;;;;;;;1.95;1.70;;;;;;;30.26;42.09;98308.50;4139757;28;20271;-54
2022/08/04 08:02:06;;;;;;;2.13;1.60;;;;;;;30.51;42.82;98304.00;4137819;28;20212;-54
2022/08/04 08:04:09;;;;;;;2.35;2.13;;;;;;;30.85;40.91;98308.44;4138053;28;20932;-55
2022/08/04 08:06:11;;;;;;;2.85;2.22;;;;;;;31.07;42.03;98309.47;4117202;28;20205;-55
2022/08/04 08:08:32;;;;;;;4.63;1.70;;;;;;;31.05;40.33;98306.25;4135718;28;20201;-55
2022/08/04 08:10:34;;;;;;;3.03;1.60;;;;;;;30.87;40.43;98306.06;4137804;28;20285;-55
2022/08/04 08:12:37;;;;;;;1.88;1.40;;;;;;;30.91;40.50;98312.56;4135901;28;20643;-54
2022/08/04 08:14:52;;;;;;;2.75;1.70;;;;;;;30.91;41.69;98306.91;4141617;28;20201;-55
2022/08/04 08:16:54;;;;;;;2.15;1.60;;;;;;;31.19;41.26;98307.19;4141280;28;20263;-54
2022/08/04 08:18:56;;;;;;;2.25;1.83;;;;;;;31.02;40.20;98312.66;4137827;28;21030;-54
2022/08/04 08:20:58;;;;;;;2.00;1.75;;;;;;;31.19;40.35;98306.41;4154564;28;20262;-54
2022/08/04 08:23:00;;;;;;;2.22;1.80;;;;;;;31.48;40.10;98302.59;4136470;28;20228;-55
2022/08/04 08:25:05;;;;;;;4.22;2.17;;;;;;;31.52;40.54;98299.41;4139536;28;20213;-55
2022/08/04 08:27:07;;;;;;;5.43;1.90;;;;;;;31.99;41.13;98301.38;4135487;28;20212;-54
2022/08/04 08:29:09;;;;;;;5.00;2.25;;;;;;;32.33;40.04;98314.16;4138988;28;20695;-54
2022/08/04 08:31:11;;;;;;;17.65;2.15;;;;;;;32.55;40.08;98307.34;4137522;28;20197;-55
2022/08/04 08:33:14;;;;;;;6.40;2.03;;;;;;;32.60;38.73;98304.13;4145065;28;20232;-55
2022/08/04 08:35:16;;;;;;;2.83;2.30;;;;;;;32.48;39.14;98302.44;4154957;28;20239;-55
2022/08/04 08:37:45;;;;;;;6.07;2.10;;;;;;;32.54;39.70;98302.91;4141256;28;20229;-55
2022/08/04 08:40:12;;;;;;;3.63;2.47;;;;;;;32.01;39.22;98298.97;4131610;28;20717;-54
2022/08/04 08:42:46;;;;;;;4.07;1.80;;;;;;;32.06;40.19;98299.41;4161781;28;20242;-53
2022/08/04 08:44:51;;;;;;;2.50;1.73;;;;;;;32.17;38.71;98303.09;4152634;28;20204;-54
2022/08/04 08:47:36;;;;;;;3.20;1.75;;;;;;;32.62;40.00;98301.72;4139176;28;20296;-55
2022/08/04 08:50:25;;;;;;;4.88;2.05;;;;;;;33.25;38.54;98301.84;4135675;28;20247;-54
2022/08/04 08:52:35;;;;;;;3.97;1.67;;;;;;;33.55;38.38;98293.78;4137529;28;20715;-54
2022/08/04 08:55:17;;;;;;;1.95;1.77;;;;;;;33.86;37.57;98292.97;4156168;28;20220;-54
2022/08/04 08:57:53;;;;;;;2.35;1.88;;;;;;;34.08;37.61;98295.34;4138872;28;20217;-54
2022/08/04 09:00:15;;;;;;;3.50;1.85;;;;;;;33.80;37.14;98294.63;4156471;28;20208;-54
2022/08/04 09:02:41;;;;;;;8.80;1.52;;;;;;;33.32;35.90;98293.38;4137727;28;20231;-54
2022/08/04 09:04:57;;;;;;;2.13;1.50;;;;;;;33.63;37.58;98289.72;4160076;28;20270;-55
2022/08/04 09:07:20;;;;;;;2.33;1.67;;;;;;;33.55;37.75;98293.78;4159966;28;20200;-55
2022/08/04 09:09:44;;;;;;;2.28;1.75;;;;;;;33.84;37.62;98295.41;4158314;28;20212;-55
2022/08/04 09:12:02;;;;;;;1.77;1.65;;;;;;;34.05;36.75;98301.84;4143006;28;20224;-54
2022/08/04 09:14:05;;;;;;;2.75;1.20;;;;;;;34.14;36.82;98290.06;4160265;28;20261;-54
2022/08/04 09:16:09;;;;;;;5.38;1.40;;;;;;;34.36;36.62;98294.47;4142706;28;20208;-54
2022/08/04 09:18:22;;;;;;;8.13;1.45;;;;;;;34.38;36.64;98303.41;4141968;28;20209;-53
2022/08/04 09:20:27;;;;;;;6.93;2.10;;;;;;;34.43;36.70;98289.59;4140654;28;20596;-53
2022/08/04 09:22:37;;;;;;;2.33;1.42;;;;;;;34.60;37.34;98300.06;4143036;28;20239;-53
2022/08/04 09:24:48;;;;;;;1.67;1.58;;;;;;;34.86;35.44;98301.59;4142906;28;20208;-54
2022/08/04 09:26:57;;;;;;;7.35;1.80;;;;;;;34.44;34.62;98296.06;4141965;28;20204;-53
2022/08/04 09:29:14;;;;;;;2.22;1.50;;;;;;;34.60;35.30;98293.56;4138721;28;20664;-54
2022/08/04 09:31:21;;;;;;;1.40;1.27;;;;;;;34.88;35.03;98297.09;4141372;28;20209;-54
2022/08/04 09:33:35;;;;;;;1.10;1.00;;;;;;;34.71;34.06;98295.13;4136382;28;20205;-53
2022/08/04 09:36:07;;;;;;;1.40;1.10;;;;;;;34.74;33.74;98297.16;4143303;28;20686;-53
2022/08/04 09:38:34;;;;;;;1.83;1.50;;;;;;;34.99;32.63;98294.19;4135011;28;20193;-54
2022/08/04 09:41:02;;;;;;;2.65;1.00;;;;;;;35.17;33.33;98292.03;4142504;28;20219;-55
2022/08/04 09:43:35;;;;;;;1.95;1.52;;;;;;;35.65;32.26;98293.69;4158213;28;20231;-53
2022/08/04 09:46:27;;;;;;;2.25;1.45;;;;;;;35.62;33.35;98299.41;4157079;28;20276;-54
2022/08/04 09:48:43;;;;;;;3.67;1.30;;;;;;;35.82;32.69;98298.47;4133286;28;20205;-53
2022/08/04 09:50:54;;;;;;;1.73;1.30;;;;;;;35.87;31.98;98288.63;4118477;28;20212;-53
2022/08/04 09:53:37;;;;;;;4.63;1.10;;;;;;;36.19;32.04;98286.28;4135580;28;20226;-53
2022/08/04 09:55:45;;;;;;;3.25;1.00;;;;;;;36.38;32.21;98288.47;4112740;28;20259;-53
2022/08/04 09:58:36;;;;;;;6.10;1.13;;;;;;;36.77;31.86;98288.81;4155608;28;20216;-52
2022/08/04 10:00:50;;;;;;;7.05;0.98;;;;;;;36.82;31.16;98292.03;4142369;28;20206;-53
2022/08/04 10:02:57;;;;;;;4.53;1.30;;;;;;;36.89;30.40;98291.09;4150616;28;21305;-53
2022/08/04 10:05:02;;;;;;;2.65;0.90;;;;;;;36.48;29.74;98285.53;4139216;28;20652;-54
2022/08/04 10:07:29;;;;;;;24.42;2.65;;;;;;;36.72;30.99;98284.41;4119789;28;20197;-54
2022/08/04 10:09:53;;;;;;;7.82;1.20;;;;;;;36.97;29.98;98284.88;4139971;28;20318;-54
2022/08/04 10:12:11;;;;;;;2.25;0.95;;;;;;;37.15;28.48;98285.44;4154852;28;20323;-53
2022/08/04 10:14:36;;;;;;;2.50;0.90;;;;;;;37.49;29.28;98280.41;4121598;28;20268;-54
2022/08/04 10:17:35;;;;;;;1.23;0.90;;;;;;;37.22;28.01;98279.63;4138950;28;20281;-52
2022/08/04 10:19:39;;;;;;;1.17;1.05;;;;;;;37.09;28.32;98286.34;4102402;28;20218;-53
2022/08/04 10:22:19;;;;;;;3.15;0.50;;;;;;;37.14;27.65;98275.28;4090898;28;20716;-52
2022/08/04 10:24:35;;;;;;;1.85;0.68;;;;;;;37.46;28.17;98277.59;4112196;28;20564;-54
2022/08/04 10:27:05;;;;;;;0.75;0.70;;;;;;;37.19;27.72;98274.75;4136211;28;20213;-53
2022/08/04 10:29:18;;;;;;;3.20;0.80;;;;;;;36.51;28.31;98272.41;4118562;28;20232;-52
2022/08/04 10:31:33;;;;;;;2.03;0.73;;;;;;;36.74;28.66;98269.72;4155230;28;20204;-52
2022/08/04 10:33:50;;;;;;;2.10;0.95;;;;;;;36.63;28.59;98274.75;4122109;28;20296;-53
2022/08/04 10:36:17;;;;;;;2.05;1.00;;;;;;;36.92;28.44;98275.97;4117268;28;20229;-54